createdAt,value
2022-08-01T00:00:02.208Z,23.79
2022-08-01T00:00:14.294Z,23.80
2022-08-01T00:00:26.351Z,23.79
2022-08-01T00:00:38.647Z,23.77
2022-08-01T00:00:50.585Z,23.81
2022-08-01T00:01:02.525Z,23.83
2022-08-01T00:01:14.949Z,23.83
2022-08-01T00:01:26.950Z,23.82
2022-08-01T00:01:38.876Z,23.83
2022-08-01T00:01:50.886Z,23.83
2022-08-01T00:02:03.352Z,23.84
2022-08-01T00:02:15.671Z,23.85
2022-08-01T00:02:28.841Z,23.87
2022-08-01T00:02:41.534Z,23.85
2022-08-01T00:02:53.631Z,23.87
2022-08-01T00:03:05.673Z,23.88
2022-08-01T00:03:17.651Z,23.83
2022-08-01T00:03:29.631Z,23.85
2022-08-01T00:03:41.748Z,23.86
2022-08-01T00:03:53.938Z,23.88
2022-08-01T00:04:05.906Z,23.87
2022-08-01T00:04:17.916Z,23.82
2022-08-01T00:04:29.904Z,23.82
2022-08-01T00:04:41.858Z,23.83
2022-08-01T00:04:55.712Z,23.85
2022-08-01T00:05:09.367Z,23.84
2022-08-01T00:05:21.347Z,23.86
2022-08-01T00:05:33.554Z,23.86
2022-08-01T00:05:46.310Z,23.80
2022-08-01T00:05:58.251Z,23.78
2022-08-01T00:06:10.181Z,23.78
2022-08-01T00:06:22.095Z,23.75
2022-08-01T00:06:34.095Z,23.72
2022-08-01T00:06:46.062Z,23.64
2022-08-01T00:06:58.084Z,23.66
2022-08-01T00:07:10.133Z,23.62
2022-08-01T00:07:22.048Z,23.65
2022-08-01T00:07:35.647Z,23.63
2022-08-01T00:07:47.606Z,23.67
2022-08-01T00:08:00.321Z,23.72
2022-08-01T00:08:12.293Z,23.75
2022-08-01T00:08:24.342Z,23.76
2022-08-01T00:08:36.328Z,23.79
2022-08-01T00:08:48.274Z,23.76
2022-08-01T00:09:00.278Z,23.79
2022-08-01T00:09:12.274Z,23.78
2022-08-01T00:09:36.347Z,23.68
2022-08-01T00:09:48.294Z,23.68
2022-08-01T00:10:00.251Z,23.63
2022-08-01T00:10:14.245Z,23.65
2022-08-01T00:10:26.268Z,23.64
2022-08-01T00:10:38.219Z,23.62
2022-08-01T00:10:50.295Z,23.59
2022-08-01T00:11:03.037Z,23.57
2022-08-01T00:11:15.148Z,23.60
2022-08-01T00:11:27.378Z,23.56
2022-08-01T00:11:39.540Z,23.59
2022-08-01T00:11:56.243Z,23.60
2022-08-01T00:12:12.150Z,23.62
2022-08-01T00:12:24.217Z,23.66
2022-08-01T00:12:36.287Z,23.68
2022-08-01T00:12:48.240Z,23.70
2022-08-01T00:13:00.168Z,23.73
2022-08-01T00:13:12.186Z,23.71
2022-08-01T00:13:24.117Z,23.53
2022-08-01T00:13:36.348Z,23.55
2022-08-01T00:13:48.385Z,23.52
2022-08-01T00:14:00.353Z,23.55
2022-08-01T00:14:12.519Z,23.61
2022-08-01T00:14:31.020Z,23.64
2022-08-01T00:14:44.423Z,23.69
2022-08-01T00:14:56.382Z,23.71
2022-08-01T00:15:10.371Z,23.73
2022-08-01T00:15:22.470Z,23.75
2022-08-01T00:15:34.745Z,23.71
2022-08-01T00:15:53.960Z,23.61
2022-08-01T00:16:06.593Z,23.64
2022-08-01T00:16:18.528Z,23.62
2022-08-01T00:16:30.474Z,23.61
2022-08-01T00:16:42.479Z,23.57
2022-08-01T00:16:54.431Z,23.61
2022-08-01T00:17:07.588Z,23.57
2022-08-01T00:17:19.634Z,23.59
2022-08-01T00:17:31.570Z,23.57
2022-08-01T00:17:44.496Z,23.59
2022-08-01T00:17:56.447Z,23.63
2022-08-01T00:18:08.427Z,23.62
2022-08-01T00:18:20.351Z,23.64
2022-08-01T00:18:32.363Z,23.64
2022-08-01T00:18:44.334Z,23.68
2022-08-01T00:18:56.414Z,23.69
2022-08-01T00:19:08.383Z,23.70
2022-08-01T00:19:20.313Z,23.70
2022-08-01T00:19:32.806Z,23.71
2022-08-01T00:19:44.780Z,23.71
2022-08-01T00:19:56.749Z,23.70
2022-08-01T00:20:13.044Z,23.69
2022-08-01T00:20:25.029Z,23.69
2022-08-01T00:20:37.010Z,23.69
2022-08-01T00:20:49.063Z,23.70
2022-08-01T00:21:00.996Z,23.70
2022-08-01T00:21:12.937Z,23.72
2022-08-01T00:21:24.933Z,23.70
2022-08-01T00:21:37.047Z,23.61
2022-08-01T00:21:52.355Z,23.64
2022-08-01T00:22:04.863Z,23.67
2022-08-01T00:22:17.971Z,23.69
2022-08-01T00:22:31.899Z,23.71
2022-08-01T00:22:43.870Z,23.69
2022-08-01T00:22:55.864Z,23.69
2022-08-01T00:23:07.787Z,23.71
2022-08-01T00:23:19.825Z,23.72
2022-08-01T00:23:32.432Z,23.73
2022-08-01T00:23:46.233Z,23.75
2022-08-01T00:23:58.259Z,23.75
2022-08-01T00:24:14.408Z,23.72
2022-08-01T00:24:27.661Z,23.72
2022-08-01T00:24:39.644Z,23.72
2022-08-01T00:24:51.676Z,23.73
2022-08-01T00:25:05.762Z,23.70
2022-08-01T00:25:17.765Z,23.70
2022-08-01T00:25:33.913Z,23.70
2022-08-01T00:25:46.483Z,23.66
2022-08-01T00:25:58.567Z,23.63
2022-08-01T00:26:10.531Z,23.64
2022-08-01T00:26:22.457Z,23.64
2022-08-01T00:26:34.389Z,23.65
2022-08-01T00:26:46.327Z,23.65
2022-08-01T00:26:58.267Z,23.69
2022-08-01T00:27:10.218Z,23.70
2022-08-01T00:27:22.143Z,23.63
2022-08-01T00:27:37.576Z,23.55
2022-08-01T00:27:49.993Z,23.56
2022-08-01T00:28:04.058Z,23.56
2022-08-01T00:28:17.196Z,23.52
2022-08-01T00:28:29.166Z,23.59
2022-08-01T00:28:41.768Z,23.61
2022-08-01T00:28:53.791Z,23.66
2022-08-01T00:29:10.130Z,23.68
2022-08-01T00:30:11.915Z,23.72
2022-08-01T00:30:14.669Z,23.72
2022-08-01T00:30:27.044Z,23.70
2022-08-01T00:30:39.036Z,23.73
2022-08-01T00:30:51.057Z,23.72
2022-08-01T00:31:03.367Z,23.74
2022-08-01T00:31:15.368Z,23.75
2022-08-01T00:31:27.379Z,23.76
2022-08-01T00:31:39.482Z,23.75
2022-08-01T00:31:51.433Z,23.77
2022-08-01T00:32:03.872Z,23.78
2022-08-01T00:32:16.151Z,23.78
2022-08-01T00:32:28.085Z,23.76
2022-08-01T00:32:40.144Z,23.77
2022-08-01T00:32:52.080Z,23.77
2022-08-01T00:33:04.060Z,23.77
2022-08-01T00:33:15.977Z,23.77
2022-08-01T00:33:27.920Z,23.77
2022-08-01T00:33:39.868Z,23.78
2022-08-01T00:33:52.160Z,23.75
2022-08-01T00:34:04.133Z,23.74
2022-08-01T00:34:16.119Z,23.72
2022-08-01T00:34:28.092Z,23.73
2022-08-01T00:34:40.253Z,23.72
2022-08-01T00:34:52.272Z,23.74
2022-08-01T00:35:04.397Z,23.75
2022-08-01T00:35:17.256Z,23.74
2022-08-01T00:35:29.285Z,23.74
2022-08-01T00:35:41.347Z,23.76
2022-08-01T00:35:53.321Z,23.76
2022-08-01T00:36:05.416Z,23.77
2022-08-01T00:36:17.428Z,23.75
2022-08-01T00:36:29.415Z,23.75
2022-08-01T00:36:41.368Z,23.75
2022-08-01T00:36:53.323Z,23.78
2022-08-01T00:37:05.290Z,23.79
2022-08-01T00:37:17.325Z,23.79
2022-08-01T00:37:29.290Z,23.80
2022-08-01T00:37:41.405Z,23.79
2022-08-01T00:37:53.619Z,23.76
2022-08-01T00:38:05.590Z,23.74
2022-08-01T00:38:17.530Z,23.73
2022-08-01T00:38:29.531Z,23.69
2022-08-01T00:38:41.612Z,23.64
2022-08-01T00:38:53.724Z,23.66
2022-08-01T00:39:05.675Z,23.66
2022-08-01T00:39:17.592Z,23.69
2022-08-01T00:39:29.593Z,23.69
2022-08-01T00:39:41.520Z,23.68
2022-08-01T00:39:53.650Z,23.68
2022-08-01T00:40:06.958Z,23.69
2022-08-01T00:40:18.991Z,23.67
2022-08-01T00:40:30.974Z,23.66
2022-08-01T00:40:43.024Z,23.65
2022-08-01T00:40:54.959Z,23.67
2022-08-01T00:41:06.899Z,23.67
2022-08-01T00:41:18.949Z,23.67
2022-08-01T00:41:30.882Z,23.65
2022-08-01T00:41:42.884Z,23.65
2022-08-01T00:41:59.951Z,23.65
2022-08-01T00:42:14.333Z,23.65
2022-08-01T00:42:26.297Z,23.66
2022-08-01T00:42:43.295Z,23.66
2022-08-01T00:42:55.675Z,23.67
2022-08-01T00:43:07.625Z,23.66
2022-08-01T00:43:19.552Z,23.66
2022-08-01T00:43:31.531Z,23.67
2022-08-01T00:43:43.531Z,23.63
2022-08-01T00:43:55.532Z,23.59
2022-08-01T00:44:07.678Z,23.59
2022-08-01T00:44:19.632Z,23.60
2022-08-01T00:44:31.549Z,23.62
2022-08-01T00:44:43.539Z,23.62
2022-08-01T00:44:55.543Z,23.62
2022-08-01T00:45:08.066Z,23.61
2022-08-01T00:45:20.176Z,23.63
2022-08-01T00:45:32.203Z,23.63
2022-08-01T00:45:44.210Z,23.63
2022-08-01T00:45:56.127Z,23.65
2022-08-01T00:46:08.191Z,23.66
2022-08-01T00:46:20.100Z,23.66
2022-08-01T00:46:32.957Z,23.66
2022-08-01T00:46:44.903Z,23.66
2022-08-01T00:46:56.844Z,23.66
2022-08-01T00:47:09.181Z,23.64
2022-08-01T00:47:21.135Z,23.62
2022-08-01T00:47:33.113Z,23.62
2022-08-01T00:47:45.076Z,23.65
2022-08-01T00:47:57.022Z,23.60
2022-08-01T00:48:09.013Z,23.65
2022-08-01T00:48:21.048Z,23.65
2022-08-01T00:48:33.131Z,23.65
2022-08-01T00:48:45.215Z,23.68
2022-08-01T00:48:58.166Z,23.69
2022-08-01T00:49:10.545Z,23.69
2022-08-01T00:49:23.333Z,23.70
2022-08-01T00:49:35.726Z,23.66
2022-08-01T00:49:47.787Z,23.65
2022-08-01T00:49:59.759Z,23.65
2022-08-01T00:50:12.282Z,23.61
2022-08-01T00:50:24.776Z,23.61
2022-08-01T00:50:37.149Z,23.60
2022-08-01T00:50:50.338Z,23.59
2022-08-01T00:51:04.255Z,23.56
2022-08-01T00:51:18.036Z,23.48
2022-08-01T00:51:30.287Z,23.50
2022-08-01T00:51:42.305Z,23.53
2022-08-01T00:51:55.390Z,23.56
2022-08-01T00:52:09.367Z,23.58
2022-08-01T00:52:21.505Z,23.57
2022-08-01T00:52:35.320Z,23.59
2022-08-01T00:52:51.400Z,23.58
2022-08-01T00:53:03.658Z,23.51
2022-08-01T00:53:18.767Z,23.51
2022-08-01T00:53:38.717Z,23.56
2022-08-01T00:54:03.391Z,23.52
2022-08-01T00:54:17.093Z,23.50
2022-08-01T00:54:29.419Z,23.52
2022-08-01T00:54:41.492Z,23.52
2022-08-01T00:54:53.541Z,23.52
2022-08-01T00:55:06.315Z,23.55
2022-08-01T00:55:19.496Z,23.52
2022-08-01T00:55:32.441Z,23.48
2022-08-01T00:55:44.574Z,23.41
2022-08-01T00:55:57.526Z,23.41
2022-08-01T00:56:10.398Z,23.43
2022-08-01T00:56:25.473Z,23.38
2022-08-01T00:56:37.583Z,23.31
2022-08-01T00:56:49.531Z,23.32
2022-08-01T00:57:01.584Z,23.31
2022-08-01T00:57:15.157Z,23.29
2022-08-01T00:58:02.343Z,23.33
2022-08-01T00:58:02.445Z,23.37
2022-08-01T00:58:18.033Z,23.39
2022-08-01T00:58:32.045Z,23.40
2022-08-01T00:58:45.075Z,23.44
2022-08-01T00:58:58.059Z,23.43
2022-08-01T00:59:13.986Z,23.41
2022-08-01T00:59:27.755Z,23.33
2022-08-01T00:59:41.339Z,23.32
2022-08-01T00:59:53.648Z,23.36
2022-08-01T01:00:07.430Z,23.38
2022-08-01T01:00:19.447Z,23.38
2022-08-01T01:00:52.694Z,23.40
2022-08-01T01:01:05.656Z,23.30
2022-08-01T01:01:21.902Z,23.32
2022-08-01T01:01:39.624Z,23.32
2022-08-01T01:01:52.086Z,23.33
2022-08-01T01:02:04.463Z,23.34
2022-08-01T01:02:26.567Z,23.36
2022-08-01T01:02:38.519Z,23.38
2022-08-01T01:02:50.601Z,23.38
2022-08-01T01:03:02.914Z,23.40
2022-08-01T01:03:15.524Z,23.40
2022-08-01T01:03:57.127Z,23.36
2022-08-01T01:04:00.631Z,23.36
2022-08-01T01:04:12.591Z,23.36
2022-08-01T01:04:24.553Z,23.36
2022-08-01T01:04:36.609Z,23.37
2022-08-01T01:04:48.579Z,23.37
2022-08-01T01:05:00.561Z,23.37
2022-08-01T01:05:12.545Z,23.37
2022-08-01T01:05:24.608Z,23.37
2022-08-01T01:05:56.223Z,23.38
2022-08-01T01:06:20.145Z,23.37
2022-08-01T01:06:47.985Z,23.40
2022-08-01T01:07:08.690Z,23.40
2022-08-01T01:07:36.056Z,23.37
2022-08-01T01:07:51.796Z,23.30
2022-08-01T01:08:12.694Z,23.32
2022-08-01T01:08:30.982Z,23.32
2022-08-01T01:08:55.926Z,23.33
2022-08-01T01:09:13.635Z,23.33
2022-08-01T01:09:34.505Z,23.28
2022-08-01T01:10:12.952Z,23.31
2022-08-01T01:11:01.812Z,23.32
2022-08-01T01:11:29.771Z,23.27
2022-08-01T01:12:17.469Z,23.31
2022-08-01T01:12:48.159Z,23.20
2022-08-01T01:13:13.198Z,23.28
2022-08-01T01:13:36.281Z,23.27
2022-08-01T01:14:09.815Z,23.23
2022-08-01T01:14:50.040Z,23.26
2022-08-01T01:15:12.531Z,23.30
2022-08-01T01:15:42.439Z,23.27
2022-08-01T01:16:01.263Z,23.27
2022-08-01T01:16:16.049Z,23.27
2022-08-01T01:16:31.528Z,23.29
2022-08-01T01:16:45.203Z,23.30
2022-08-01T01:17:01.250Z,23.25
2022-08-01T01:17:17.336Z,23.24
2022-08-01T01:17:52.183Z,23.22
2022-08-01T01:18:15.655Z,23.24
2022-08-01T01:18:46.622Z,23.27
2022-08-01T01:19:03.905Z,23.29
2022-08-01T01:19:21.950Z,23.28
2022-08-01T01:19:39.983Z,23.23
2022-08-01T01:19:56.099Z,23.24
2022-08-01T01:20:12.812Z,23.27
2022-08-01T01:20:29.969Z,23.29
2022-08-01T01:20:45.268Z,23.26
2022-08-01T01:21:27.751Z,23.22
2022-08-01T01:22:08.272Z,23.26
2022-08-01T01:22:45.135Z,23.28
2022-08-01T01:23:03.165Z,23.26
2022-08-01T01:23:35.079Z,23.23
2022-08-01T01:24:15.902Z,23.25
2022-08-01T01:25:08.885Z,23.23
2022-08-01T01:25:41.657Z,23.16
2022-08-01T01:26:17.263Z,23.16
2022-08-01T01:26:49.662Z,23.13
2022-08-01T01:27:50.645Z,23.10
2022-08-01T01:28:16.175Z,23.10
2022-08-01T01:28:55.351Z,23.12
2022-08-01T01:29:16.379Z,23.16
2022-08-01T01:29:59.046Z,23.17
2022-08-01T01:30:05.495Z,23.15
2022-08-01T01:30:17.874Z,23.13
2022-08-01T01:30:31.835Z,23.10
2022-08-01T01:30:47.300Z,23.11
2022-08-01T01:31:00.951Z,23.12
2022-08-01T01:31:15.589Z,23.11
2022-08-01T01:31:28.585Z,23.08
2022-08-01T01:31:43.139Z,23.09
2022-08-01T01:32:13.178Z,23.10
2022-08-01T01:32:36.336Z,23.15
2022-08-01T01:32:52.250Z,23.15
2022-08-01T01:33:08.253Z,23.13
2022-08-01T01:33:23.342Z,23.09
2022-08-01T01:33:35.723Z,23.07
2022-08-01T01:34:03.699Z,23.09
2022-08-01T01:34:19.452Z,23.09
2022-08-01T01:34:35.239Z,23.11
2022-08-01T01:34:51.475Z,23.11
2022-08-01T01:35:08.860Z,23.11
2022-08-01T01:35:32.376Z,23.12
2022-08-01T01:35:48.559Z,23.13
2022-08-01T01:36:11.790Z,23.14
2022-08-01T01:36:27.388Z,23.15
2022-08-01T01:36:40.862Z,23.12
2022-08-01T01:36:55.614Z,23.13
2022-08-01T01:37:11.931Z,23.16
2022-08-01T01:37:26.575Z,23.13
2022-08-01T01:37:41.249Z,23.15
2022-08-01T01:38:11.377Z,23.18
2022-08-01T01:38:27.695Z,23.17
2022-08-01T01:38:45.145Z,23.15
2022-08-01T01:38:57.796Z,23.13
2022-08-01T01:39:10.718Z,23.13
2022-08-01T01:39:26.686Z,23.16
2022-08-01T01:39:41.466Z,23.15
2022-08-01T01:39:58.763Z,23.16
2022-08-01T01:40:12.835Z,23.10
2022-08-01T01:40:26.791Z,23.08
2022-08-01T01:40:40.157Z,23.09
2022-08-01T01:40:53.847Z,23.09
2022-08-01T01:41:07.172Z,23.02
2022-08-01T01:41:19.750Z,23.02
2022-08-01T01:41:32.648Z,23.04
2022-08-01T01:41:47.831Z,23.05
2022-08-01T01:42:01.450Z,23.06
2022-08-01T01:42:15.900Z,23.07
2022-08-01T01:42:28.084Z,23.10
2022-08-01T01:42:43.052Z,23.11
2022-08-01T01:42:56.738Z,23.10
2022-08-01T01:43:11.399Z,23.11
2022-08-01T01:43:29.079Z,23.11
2022-08-01T01:43:47.649Z,23.12
2022-08-01T01:44:02.272Z,23.12
2022-08-01T01:44:16.155Z,23.13
2022-08-01T01:44:29.335Z,23.13
2022-08-01T01:44:43.923Z,23.16
2022-08-01T01:44:56.973Z,23.14
2022-08-01T01:45:09.978Z,23.16
2022-08-01T01:45:24.357Z,23.16
2022-08-01T01:45:37.395Z,23.16
2022-08-01T01:45:50.095Z,23.14
2022-08-01T01:46:06.118Z,23.14
2022-08-01T01:46:23.596Z,23.12
2022-08-01T01:46:36.781Z,23.13
2022-08-01T01:46:50.731Z,23.14
2022-08-01T01:47:05.159Z,23.15
2022-08-01T01:47:18.520Z,23.15
2022-08-01T01:47:31.886Z,23.16
2022-08-01T01:47:45.672Z,23.17
2022-08-01T01:47:59.490Z,23.13
2022-08-01T01:48:15.669Z,23.16
2022-08-01T01:48:29.616Z,23.13
2022-08-01T01:48:45.839Z,23.13
2022-08-01T01:48:59.383Z,23.13
2022-08-01T01:49:12.572Z,23.04
2022-08-01T01:49:27.084Z,22.93
2022-08-01T01:49:40.956Z,22.97
2022-08-01T01:49:55.417Z,22.96
2022-08-01T01:50:12.832Z,23.01
2022-08-01T01:50:25.834Z,23.02
2022-08-01T01:50:38.602Z,23.03
2022-08-01T01:50:52.137Z,23.05
2022-08-01T01:51:05.819Z,22.99
2022-08-01T01:51:21.540Z,22.98
2022-08-01T01:51:34.298Z,22.95
2022-08-01T01:51:57.415Z,22.98
2022-08-01T01:52:17.925Z,23.01
2022-08-01T01:52:32.686Z,23.02
2022-08-01T01:52:46.149Z,23.02
2022-08-01T01:53:00.030Z,23.01
2022-08-01T01:53:15.045Z,23.02
2022-08-01T01:53:29.323Z,23.02
2022-08-01T01:53:42.246Z,23.02
2022-08-01T01:53:56.216Z,23.01
2022-08-01T01:54:10.486Z,23.01
2022-08-01T01:54:25.216Z,23.01
2022-08-01T01:54:43.366Z,23.02
2022-08-01T01:54:57.753Z,23.00
2022-08-01T01:55:11.366Z,22.99
2022-08-01T01:55:26.280Z,22.97
2022-08-01T01:55:48.948Z,22.95
2022-08-01T01:56:03.827Z,22.97
2022-08-01T01:56:18.087Z,22.94
2022-08-01T01:56:31.902Z,22.97
2022-08-01T01:56:50.844Z,22.98
2022-08-01T01:57:05.416Z,22.98
2022-08-01T01:57:19.103Z,23.00
2022-08-01T01:57:33.243Z,23.02
2022-08-01T01:57:46.354Z,23.00
2022-08-01T01:57:59.819Z,22.96
2022-08-01T01:58:14.674Z,22.99
2022-08-01T01:58:29.047Z,22.98
2022-08-01T01:58:42.763Z,22.96
2022-08-01T01:59:00.361Z,22.89
2022-08-01T01:59:13.899Z,22.85
2022-08-01T01:59:30.104Z,22.85
2022-08-01T01:59:43.391Z,22.87
2022-08-01T01:59:56.516Z,22.85
2022-08-01T02:00:12.774Z,22.84
2022-08-01T02:00:25.903Z,22.83
2022-08-01T02:00:39.271Z,22.85
2022-08-01T02:00:56.419Z,22.82
2022-08-01T02:01:14.473Z,22.82
2022-08-01T02:01:58.086Z,22.84
2022-08-01T02:02:08.638Z,22.86
2022-08-01T02:02:23.668Z,22.80
2022-08-01T02:02:38.342Z,22.81
2022-08-01T02:02:52.620Z,22.78
2022-08-01T02:03:07.931Z,22.80
2022-08-01T02:03:21.761Z,22.80
2022-08-01T02:03:37.352Z,22.81
2022-08-01T02:03:50.665Z,22.83
2022-08-01T02:04:03.762Z,22.84
2022-08-01T02:04:17.472Z,22.84
2022-08-01T02:04:31.266Z,22.84
2022-08-01T02:04:45.963Z,22.86
2022-08-01T02:04:59.101Z,22.84
2022-08-01T02:05:12.602Z,22.86
2022-08-01T02:05:26.158Z,22.84
2022-08-01T02:05:39.581Z,22.85
2022-08-01T02:05:54.325Z,22.86
2022-08-01T02:06:07.913Z,22.86
2022-08-01T02:06:21.186Z,22.87
2022-08-01T02:06:34.937Z,22.85
2022-08-01T02:06:48.037Z,22.84
2022-08-01T02:07:02.774Z,22.82
2022-08-01T02:07:26.170Z,22.81
2022-08-01T02:07:40.106Z,22.82
2022-08-01T02:07:54.230Z,22.80
2022-08-01T02:08:15.447Z,22.79
2022-08-01T02:08:30.641Z,22.77
2022-08-01T02:08:45.941Z,22.77
2022-08-01T02:08:58.845Z,22.78
2022-08-01T02:09:11.713Z,22.79
2022-08-01T02:09:25.190Z,22.79
2022-08-01T02:09:38.665Z,22.77
2022-08-01T02:09:53.622Z,22.78
2022-08-01T02:10:07.346Z,22.76
2022-08-01T02:10:20.232Z,22.77
2022-08-01T02:10:41.481Z,22.76
2022-08-01T02:11:14.877Z,22.76
2022-08-01T02:11:26.879Z,22.74
2022-08-01T02:12:07.276Z,22.76
2022-08-01T02:12:14.343Z,22.77
2022-08-01T02:12:27.954Z,22.77
2022-08-01T02:12:43.271Z,22.76
2022-08-01T02:12:57.025Z,22.78
2022-08-01T02:13:09.699Z,22.77
2022-08-01T02:13:22.210Z,22.77
2022-08-01T02:13:37.513Z,22.76
2022-08-01T02:14:02.873Z,22.75
2022-08-01T02:14:16.508Z,22.74
2022-08-01T02:14:30.554Z,22.73
2022-08-01T02:14:43.634Z,22.74
2022-08-01T02:14:56.903Z,22.76
2022-08-01T02:15:10.463Z,22.74
2022-08-01T02:15:24.984Z,22.72
2022-08-01T02:15:59.852Z,22.75
2022-08-01T02:16:13.190Z,22.73
2022-08-01T02:16:29.273Z,22.71
2022-08-01T02:16:44.059Z,22.70
2022-08-01T02:16:59.200Z,22.67
2022-08-01T02:17:13.279Z,22.65
2022-08-01T02:17:26.195Z,22.66
2022-08-01T02:17:42.936Z,22.68
2022-08-01T02:17:57.132Z,22.68
2022-08-01T02:18:10.047Z,22.67
2022-08-01T02:18:23.926Z,22.68
2022-08-01T02:18:36.123Z,22.67
2022-08-01T02:18:48.209Z,22.68
2022-08-01T02:19:00.819Z,22.68
2022-08-01T02:19:13.068Z,22.67
2022-08-01T02:19:25.088Z,22.66
2022-08-01T02:19:38.246Z,22.65
2022-08-01T02:19:51.147Z,22.64
2022-08-01T02:20:03.702Z,22.64
2022-08-01T02:20:17.175Z,22.64
2022-08-01T02:20:31.218Z,22.63
2022-08-01T02:20:43.628Z,22.64
2022-08-01T02:20:58.698Z,22.63
2022-08-01T02:21:14.913Z,22.64
2022-08-01T02:21:38.360Z,22.65
2022-08-01T02:21:55.552Z,22.67
2022-08-01T02:22:33.357Z,22.65
2022-08-01T02:22:50.177Z,22.64
2022-08-01T02:23:09.062Z,22.64
2022-08-01T02:23:22.564Z,22.65
2022-08-01T02:23:37.993Z,22.62
2022-08-01T02:23:52.705Z,22.64
2022-08-01T02:24:14.641Z,22.67
2022-08-01T02:24:32.441Z,22.66
2022-08-01T02:24:52.971Z,22.65
2022-08-01T02:25:20.501Z,22.64
2022-08-01T02:26:11.307Z,22.65
2022-08-01T02:26:24.953Z,22.66
2022-08-01T02:26:40.706Z,22.64
2022-08-01T02:26:55.569Z,22.62
2022-08-01T02:27:13.652Z,22.64
2022-08-01T02:27:42.396Z,22.65
2022-08-01T02:28:07.187Z,22.66
2022-08-01T02:28:29.029Z,22.65
2022-08-01T02:28:49.515Z,22.66
2022-08-01T02:29:11.440Z,22.67
2022-08-01T02:29:28.254Z,22.66
2022-08-01T02:29:53.186Z,22.64
2022-08-01T02:30:07.901Z,22.61
2022-08-01T02:30:20.737Z,22.61
2022-08-01T02:30:39.727Z,22.55
2022-08-01T02:30:52.143Z,22.55
2022-08-01T02:31:12.282Z,22.53
2022-08-01T02:31:24.629Z,22.54
2022-08-01T02:31:40.709Z,22.51
2022-08-01T02:31:55.564Z,22.52
2022-08-01T02:32:12.793Z,22.53
2022-08-01T02:32:30.066Z,22.48
2022-08-01T02:32:52.267Z,22.45
2022-08-01T02:33:15.478Z,22.45
2022-08-01T02:33:39.242Z,22.47
2022-08-01T02:33:58.151Z,22.49
2022-08-01T02:34:14.090Z,22.49
2022-08-01T02:34:29.317Z,22.50
2022-08-01T02:34:44.574Z,22.48
2022-08-01T02:35:00.450Z,22.49
2022-08-01T02:35:22.977Z,22.49
2022-08-01T02:36:29.098Z,22.47
2022-08-01T02:36:32.204Z,22.45
2022-08-01T02:36:39.460Z,22.43
2022-08-01T02:36:52.556Z,22.40
2022-08-01T02:37:05.427Z,22.41
2022-08-01T02:37:19.820Z,22.42
2022-08-01T02:37:37.284Z,22.43
2022-08-01T02:37:56.356Z,22.43
2022-08-01T02:38:12.880Z,22.42
2022-08-01T02:38:28.437Z,22.43
2022-08-01T02:38:44.308Z,22.42
2022-08-01T02:38:57.904Z,22.41
2022-08-01T02:39:14.670Z,22.43
2022-08-01T02:39:29.379Z,22.40
2022-08-01T02:39:41.933Z,22.39
2022-08-01T02:39:55.967Z,22.37
2022-08-01T02:40:09.432Z,22.38
2022-08-01T02:40:29.125Z,22.33
2022-08-01T02:40:45.794Z,22.35
2022-08-01T02:41:00.829Z,22.37
2022-08-01T02:41:17.803Z,22.36
2022-08-01T02:41:33.630Z,22.34
2022-08-01T02:41:49.318Z,22.34
2022-08-01T02:42:06.456Z,22.36
2022-08-01T02:42:19.632Z,22.36
2022-08-01T02:42:33.263Z,22.34
2022-08-01T02:42:48.482Z,22.36
2022-08-01T02:43:03.293Z,22.34
2022-08-01T02:43:21.753Z,22.33
2022-08-01T02:43:37.679Z,22.32
2022-08-01T02:43:53.426Z,22.31
2022-08-01T02:44:08.485Z,22.34
2022-08-01T02:44:31.836Z,22.36
2022-08-01T02:44:45.344Z,22.34
2022-08-01T02:44:58.137Z,22.30
2022-08-01T02:45:11.908Z,22.29
2022-08-01T02:45:27.633Z,22.30
2022-08-01T02:45:44.342Z,22.29
2022-08-01T02:46:02.281Z,22.29
2022-08-01T02:46:23.654Z,22.29
2022-08-01T02:46:45.563Z,22.32
2022-08-01T02:47:03.207Z,22.32
2022-08-01T02:47:18.001Z,22.28
2022-08-01T02:47:31.403Z,22.28
2022-08-01T02:47:45.416Z,22.27
2022-08-01T02:48:06.794Z,22.29
2022-08-01T02:48:20.096Z,22.29
2022-08-01T02:48:36.281Z,22.24
2022-08-01T02:48:51.256Z,22.21
2022-08-01T02:49:06.398Z,22.20
2022-08-01T02:49:20.576Z,22.21
2022-08-01T02:49:37.050Z,22.20
2022-08-01T02:49:53.393Z,22.21
2022-08-01T02:50:09.060Z,22.23
2022-08-01T02:50:21.837Z,22.24
2022-08-01T02:50:35.673Z,22.25
2022-08-01T02:50:49.780Z,22.25
2022-08-01T02:51:05.355Z,22.28
2022-08-01T02:51:18.654Z,22.29
2022-08-01T02:51:32.725Z,22.28
2022-08-01T02:51:47.641Z,22.20
2022-08-01T02:52:02.580Z,22.21
2022-08-01T02:52:18.587Z,22.22
2022-08-01T02:52:32.564Z,22.22
2022-08-01T02:52:49.230Z,22.22
2022-08-01T02:53:02.695Z,22.24
2022-08-01T02:53:17.466Z,22.24
2022-08-01T02:53:44.004Z,22.23
2022-08-01T02:53:57.966Z,22.24
2022-08-01T02:54:12.315Z,22.23
2022-08-01T02:54:26.688Z,22.25
2022-08-01T02:54:40.026Z,22.23
2022-08-01T02:54:55.836Z,22.22
2022-08-01T02:55:10.146Z,22.22
2022-08-01T02:55:23.625Z,22.22
2022-08-01T02:55:36.391Z,22.21
2022-08-01T02:55:49.852Z,22.21
2022-08-01T02:56:03.236Z,22.21
2022-08-01T02:56:18.233Z,22.21
2022-08-01T02:56:38.558Z,22.22
2022-08-01T02:56:52.773Z,22.20
2022-08-01T02:57:06.980Z,22.20
2022-08-01T02:57:21.549Z,22.22
2022-08-01T02:57:51.831Z,22.24
2022-08-01T02:58:07.122Z,22.23
2022-08-01T02:58:21.193Z,22.22
2022-08-01T02:58:42.737Z,22.22
2022-08-01T02:58:55.220Z,22.22
2022-08-01T02:59:22.077Z,22.21
2022-08-01T02:59:38.190Z,22.22
2022-08-01T02:59:56.076Z,22.21
2022-08-01T03:00:08.653Z,22.21
2022-08-01T03:00:24.741Z,22.19
2022-08-01T03:00:37.511Z,22.22
2022-08-01T03:00:51.154Z,22.21
2022-08-01T03:01:07.036Z,22.20
2022-08-01T03:01:21.987Z,22.21
2022-08-01T03:01:37.605Z,22.19
2022-08-01T03:01:52.714Z,22.21
2022-08-01T03:02:09.529Z,22.19
2022-08-01T03:02:24.305Z,22.20
2022-08-01T03:02:37.104Z,22.21
2022-08-01T03:02:52.615Z,22.20
2022-08-01T03:03:07.659Z,22.21
2022-08-01T03:03:20.821Z,22.19
2022-08-01T03:03:36.399Z,22.17
2022-08-01T03:03:48.710Z,22.16
2022-08-01T03:04:00.889Z,22.14
2022-08-01T03:04:13.622Z,22.14
2022-08-01T03:04:27.217Z,22.13
2022-08-01T03:04:41.939Z,22.13
2022-08-01T03:04:57.127Z,22.08
2022-08-01T03:05:11.048Z,22.04
2022-08-01T03:05:25.969Z,22.06
2022-08-01T03:05:40.892Z,22.07
2022-08-01T03:05:53.397Z,22.08
2022-08-01T03:06:07.010Z,22.08
2022-08-01T03:06:19.240Z,22.08
2022-08-01T03:06:32.307Z,22.05
2022-08-01T03:06:45.428Z,21.91
2022-08-01T03:06:59.429Z,21.98
2022-08-01T03:07:13.659Z,21.93
2022-08-01T03:07:31.495Z,21.94
2022-08-01T03:07:48.693Z,21.97
2022-08-01T03:08:03.629Z,21.99
2022-08-01T03:08:17.713Z,21.99
2022-08-01T03:08:31.628Z,21.99
2022-08-01T03:08:45.914Z,22.02
2022-08-01T03:08:59.896Z,22.01
2022-08-01T03:09:13.910Z,22.02
2022-08-01T03:09:32.573Z,22.02
2022-08-01T03:09:47.197Z,22.03
2022-08-01T03:09:59.375Z,22.02
2022-08-01T03:10:12.376Z,22.01
2022-08-01T03:10:27.803Z,21.93
2022-08-01T03:10:43.852Z,21.97
2022-08-01T03:10:56.815Z,21.92
2022-08-01T03:11:09.843Z,21.88
2022-08-01T03:11:25.081Z,21.82
2022-08-01T03:11:40.704Z,21.86
2022-08-01T03:11:54.883Z,21.89
2022-08-01T03:12:12.637Z,21.90
2022-08-01T03:12:28.360Z,21.92
2022-08-01T03:12:41.609Z,21.92
2022-08-01T03:12:54.266Z,21.96
2022-08-01T03:13:08.508Z,21.93
2022-08-01T03:13:22.663Z,21.98
2022-08-01T03:13:34.816Z,21.99
2022-08-01T03:13:49.360Z,21.97
2022-08-01T03:14:05.984Z,21.98
2022-08-01T03:14:20.215Z,21.98
2022-08-01T03:14:36.112Z,21.99
2022-08-01T03:14:51.556Z,22.01
2022-08-01T03:15:05.976Z,22.00
2022-08-01T03:15:20.238Z,21.99
2022-08-01T03:15:34.424Z,21.96
2022-08-01T03:15:47.831Z,21.93
2022-08-01T03:16:01.888Z,21.91
2022-08-01T03:16:16.052Z,21.93
2022-08-01T03:16:29.304Z,21.92
2022-08-01T03:16:43.396Z,21.94
2022-08-01T03:16:57.072Z,21.94
2022-08-01T03:17:10.543Z,21.92
2022-08-01T03:17:25.559Z,21.92
2022-08-01T03:17:38.714Z,21.90
2022-08-01T03:17:52.377Z,21.91
2022-08-01T03:18:07.569Z,21.91
2022-08-01T03:18:19.897Z,21.94
2022-08-01T03:18:33.469Z,21.94
2022-08-01T03:18:46.984Z,21.96
2022-08-01T03:19:01.203Z,21.98
2022-08-01T03:19:15.280Z,21.99
2022-08-01T03:19:28.925Z,21.99
2022-08-01T03:19:43.453Z,22.01